Time;durP1;ratioP1;P1;durP2;ratioP2;P2;SDS_P1;SDS_P2;PMS_P1;PMS_P2;Temp;Humidity;BMP_temperature;BMP_pressure;BME280_temperature;BME280_humidity;BME280_pressure;Samples;Min_cycle;Max_cycle;Signal;HPM_P1;HPM_P2
2023/02/04 00:03:28;;;;;;;7.32;3.47;;;;;;;;;;21002785;28;20102;-68
2023/02/04 00:13:38;;;;;;;4.50;2.50;;;;;;;;;;21003003;28;20053;-69
2023/02/04 00:23:59;;;;;;;6.30;3.72;;;;;;;;;;21003043;28;20056;-68
2023/02/04 00:34:21;;;;;;;6.13;3.30;;;;;;;;;;20987519;28;20059;-68
2023/02/04 00:44:42;;;;;;;5.18;2.55;;;;;;;;;;21001389;28;20052;-68
2023/02/04 00:55:05;;;;;;;5.70;2.70;;;;;;;;;;21000780;28;20056;-68
2023/02/04 01:05:23;;;;;;;9.27;3.55;;;;;;;;;;20999880;28;20101;-68
2023/02/04 01:15:32;;;;;;;6.43;3.30;;;;;;;;;;20998681;28;20083;-68
2023/02/04 01:25:37;;;;;;;9.98;4.22;;;;;;;;;;20999252;28;20109;-67
2023/02/04 01:35:40;;;;;;;8.10;3.20;;;;;;;;;;20995834;28;20052;-68
2023/02/04 01:45:42;;;;;;;8.48;3.70;;;;;;;;;;20994942;28;20513;-68
2023/02/04 01:55:44;;;;;;;7.15;3.38;;;;;;;;;;20997039;28;20052;-68
2023/02/04 02:05:48;;;;;;;10.75;4.38;;;;;;;;;;21009533;28;20090;-68
2023/02/04 02:15:51;;;;;;;6.63;3.42;;;;;;;;;;21011435;28;20048;-68
2023/02/04 02:25:53;;;;;;;7.30;3.25;;;;;;;;;;21010359;28;20048;-68
2023/02/04 02:35:56;;;;;;;7.32;3.60;;;;;;;;;;21009203;28;20504;-67
2023/02/04 02:45:59;;;;;;;6.22;3.28;;;;;;;;;;21010346;28;20492;-67
2023/02/04 02:56:09;;;;;;;5.63;2.30;;;;;;;;;;21010646;28;20375;-67
2023/02/04 03:06:25;;;;;;;4.93;2.20;;;;;;;;;;21011145;28;20053;-68
2023/02/04 03:16:39;;;;;;;9.73;3.35;;;;;;;;;;21005999;28;20051;-68
2023/02/04 03:26:50;;;;;;;6.28;2.38;;;;;;;;;;21007729;28;20052;-67
2023/02/04 03:36:55;;;;;;;4.85;2.47;;;;;;;;;;21005698;28;20052;-67
2023/02/04 03:46:59;;;;;;;6.63;2.28;;;;;;;;;;21004540;28;20048;-68
2023/02/04 03:57:02;;;;;;;3.85;1.95;;;;;;;;;;21003291;28;20063;-67
2023/02/04 04:07:07;;;;;;;4.85;2.10;;;;;;;;;;21003549;28;20375;-67
2023/02/04 04:17:10;;;;;;;4.20;1.88;;;;;;;;;;21003155;28;20076;-67
2023/02/04 04:27:13;;;;;;;4.32;1.70;;;;;;;;;;21001011;28;20063;-67
2023/02/04 04:37:16;;;;;;;3.78;2.08;;;;;;;;;;21000396;28;20127;-68
2023/02/04 04:47:19;;;;;;;5.88;2.22;;;;;;;;;;20999024;28;20045;-69
2023/02/04 04:57:21;;;;;;;3.05;1.45;;;;;;;;;;20999461;28;20131;-67
2023/02/04 05:07:23;;;;;;;4.68;2.03;;;;;;;;;;20999036;28;20063;-67
2023/02/04 05:17:25;;;;;;;3.25;1.67;;;;;;;;;;20998663;28;20044;-68
2023/02/04 05:27:28;;;;;;;6.28;2.00;;;;;;;;;;20996289;28;20059;-67
2023/02/04 05:37:30;;;;;;;5.25;2.20;;;;;;;;;;20996870;28;20492;-67
2023/02/04 05:47:32;;;;;;;5.80;2.03;;;;;;;;;;20997075;28;20470;-67
2023/02/04 05:57:35;;;;;;;6.72;2.40;;;;;;;;;;20996761;28;20438;-68
2023/02/04 06:07:37;;;;;;;3.90;1.70;;;;;;;;;;20995029;28;20048;-69
2023/02/04 06:17:39;;;;;;;5.72;2.30;;;;;;;;;;20996207;28;20070;-68
2023/02/04 06:27:42;;;;;;;2.72;1.70;;;;;;;;;;20995210;28;20410;-68
2023/02/04 06:37:44;;;;;;;6.32;1.90;;;;;;;;;;20993521;28;20063;-68
2023/02/04 06:47:46;;;;;;;4.00;2.00;;;;;;;;;;20998579;28;20080;-68
2023/02/04 06:57:48;;;;;;;5.43;2.00;;;;;;;;;;21009385;28;20482;-67
2023/02/04 07:07:51;;;;;;;4.07;1.90;;;;;;;;;;21006996;28;20052;-68
2023/02/04 07:17:53;;;;;;;2.88;1.50;;;;;;;;;;21007994;28;20053;-68
2023/02/04 07:27:56;;;;;;;7.25;1.55;;;;;;;;;;21006257;28;20045;-68
2023/02/04 07:37:58;;;;;;;3.65;1.40;;;;;;;;;;21005196;28;20053;-68
2023/02/04 07:48:00;;;;;;;2.28;1.33;;;;;;;;;;21003593;28;20068;-68
2023/02/04 07:58:03;;;;;;;3.67;1.40;;;;;;;;;;21004200;28;20115;-68
2023/02/04 08:08:06;;;;;;;5.85;1.98;;;;;;;;;;21002327;28;20135;-68
2023/02/04 08:18:09;;;;;;;6.97;2.30;;;;;;;;;;21003951;28;20119;-67
2023/02/04 08:28:11;;;;;;;6.97;3.00;;;;;;;;;;21000646;28;20060;-68
2023/02/04 08:38:13;;;;;;;5.15;3.03;;;;;;;;;;21000567;28;20055;-68
2023/02/04 08:48:15;;;;;;;5.35;2.53;;;;;;;;;;21000066;28;20048;-68
2023/02/04 08:58:17;;;;;;;5.30;2.38;;;;;;;;;;20997092;28;20045;-68
2023/02/04 09:08:19;;;;;;;5.60;2.28;;;;;;;;;;20998597;28;20056;-68
2023/02/04 09:18:23;;;;;;;5.85;2.97;;;;;;;;;;20996919;28;20052;-68
2023/02/04 09:28:25;;;;;;;8.20;3.97;;;;;;;;;;20997076;28;20080;-69
2023/02/04 09:38:27;;;;;;;10.50;5.30;;;;;;;;;;20995876;28;20052;-67
2023/02/04 09:48:31;;;;;;;11.50;4.00;;;;;;;;;;20995647;28;20057;-68
2023/02/04 09:58:35;;;;;;;7.60;4.18;;;;;;;;;;20995018;28;20437;-68
2023/02/04 10:08:37;;;;;;;10.70;4.32;;;;;;;;;;20994518;28;20136;-69
2023/02/04 10:18:39;;;;;;;6.45;3.28;;;;;;;;;;20995546;28;20390;-67
2023/02/04 10:28:42;;;;;;;9.20;3.28;;;;;;;;;;21009717;28;20461;-67
2023/02/04 10:38:44;;;;;;;9.63;3.72;;;;;;;;;;21008280;28;20059;-68
2023/02/04 10:48:46;;;;;;;7.80;3.65;;;;;;;;;;21009547;28;20151;-67
2023/02/04 10:58:49;;;;;;;7.13;3.30;;;;;;;;;;21009112;28;20048;-68
2023/02/04 11:08:53;;;;;;;8.45;3.45;;;;;;;;;;21046146;28;20522;-69
2023/02/04 11:18:57;;;;;;;13.68;6.65;;;;;;;;;;21090906;28;20044;-69
2023/02/04 11:28:59;;;;;;;8.25;3.67;;;;;;;;;;21089468;28;20401;-68
2023/02/04 11:39:14;;;;;;;7.40;2.80;;;;;;;;;;21089068;28;20520;-68
2023/02/04 11:49:18;;;;;;;7.38;3.35;;;;;;;;;;21089395;28;20048;-68
2023/02/04 11:59:20;;;;;;;7.63;3.47;;;;;;;;;;21088027;28;20044;-68
2023/02/04 12:09:23;;;;;;;9.48;4.25;;;;;;;;;;21087054;28;20054;-68
2023/02/04 12:19:25;;;;;;;3.95;2.20;;;;;;;;;;21086771;28;20489;-69
2023/02/04 12:29:27;;;;;;;6.80;3.00;;;;;;;;;;21085116;28;20406;-69
2023/02/04 12:39:30;;;;;;;8.70;3.00;;;;;;;;;;21084011;28;20048;-66
2023/02/04 12:49:32;;;;;;;6.15;3.60;;;;;;;;;;21082882;28;20405;-68
2023/02/04 12:59:34;;;;;;;7.18;3.10;;;;;;;;;;21081757;28;20047;-70
2023/02/04 13:09:37;;;;;;;10.48;4.40;;;;;;;;;;21082582;28;20437;-68
2023/02/04 13:19:40;;;;;;;18.42;9.05;;;;;;;;;;21082038;28;20468;-68
2023/02/04 13:29:44;;;;;;;13.90;6.43;;;;;;;;;;21079731;28;20063;-69
2023/02/04 13:39:46;;;;;;;10.48;4.60;;;;;;;;;;21084802;28;20052;-69
2023/02/04 13:49:48;;;;;;;9.77;3.85;;;;;;;;;;21080271;28;20056;-69
2023/02/04 13:59:50;;;;;;;9.32;4.70;;;;;;;;;;21070033;28;20398;-68
2023/02/04 14:09:52;;;;;;;5.90;3.40;;;;;;;;;;21096528;28;20101;-68
2023/02/04 14:19:55;;;;;;;7.38;3.70;;;;;;;;;;21096035;28;20375;-68
2023/02/04 14:29:57;;;;;;;7.68;5.00;;;;;;;;;;21094694;28;20382;-68
2023/02/04 14:39:59;;;;;;;10.52;5.68;;;;;;;;;;21093341;28;20048;-68
2023/02/04 14:50:01;;;;;;;9.02;3.90;;;;;;;;;;21093753;28;20123;-68
2023/02/04 15:00:05;;;;;;;9.32;4.75;;;;;;;;;;21093142;28;20048;-69
2023/02/04 15:10:08;;;;;;;10.50;5.22;;;;;;;;;;21090790;28;20047;-69
2023/02/04 15:20:11;;;;;;;10.02;5.07;;;;;;;;;;21091198;28;20052;-70
2023/02/04 15:30:13;;;;;;;9.38;4.78;;;;;;;;;;21089683;28;20455;-70
2023/02/04 15:40:15;;;;;;;7.30;3.85;;;;;;;;;;21088107;28;20138;-70
2023/02/04 15:50:17;;;;;;;7.80;3.45;;;;;;;;;;21071959;28;20055;-69
2023/02/04 16:00:19;;;;;;;8.80;4.00;;;;;;;;;;21088233;28;20469;-69
2023/02/04 16:10:22;;;;;;;7.55;3.97;;;;;;;;;;21085630;28;20066;-69
2023/02/04 16:20:24;;;;;;;7.45;3.15;;;;;;;;;;21086595;28;20079;-67
2023/02/04 16:30:26;;;;;;;8.02;4.60;;;;;;;;;;21085415;28;20052;-67
2023/02/04 16:40:29;;;;;;;10.77;5.70;;;;;;;;;;21066873;28;20509;-68
2023/02/04 16:50:31;;;;;;;17.35;6.70;;;;;;;;;;21084832;28;20120;-71
2023/02/04 17:00:35;;;;;;;14.85;7.53;;;;;;;;;;21082088;28;20105;-67
2023/02/04 17:20:58;;;;;;;8.55;4.40;;;;;;;;;;21081990;28;20044;-67
2023/02/04 17:31:00;;;;;;;16.60;5.20;;;;;;;;;;21083714;28;20093;-67
2023/02/04 17:41:02;;;;;;;15.15;7.45;;;;;;;;;;21080720;28;20048;-70
2023/02/04 17:51:06;;;;;;;15.27;6.70;;;;;;;;;;21079833;28;20047;-68
2023/02/04 18:01:15;;;;;;;14.35;6.35;;;;;;;;;;21080307;28;20060;-68
2023/02/04 18:11:25;;;;;;;9.60;5.28;;;;;;;;;;21079187;28;20054;-68
2023/02/04 18:21:28;;;;;;;9.83;5.47;;;;;;;;;;21079100;28;20052;-68
2023/02/04 18:31:34;;;;;;;13.15;5.32;;;;;;;;;;21078325;28;20130;-67
2023/02/04 18:41:40;;;;;;;10.40;6.15;;;;;;;;;;21079559;28;20056;-69
2023/02/04 18:51:43;;;;;;;8.43;4.57;;;;;;;;;;21092187;28;20054;-69
2023/02/04 19:01:47;;;;;;;15.73;6.78;;;;;;;;;;21090992;28;20113;-69
2023/02/04 19:11:50;;;;;;;17.20;9.50;;;;;;;;;;21091719;28;20052;-70
2023/02/04 19:21:52;;;;;;;18.15;8.23;;;;;;;;;;21090243;28;20051;-69
2023/02/04 19:31:58;;;;;;;22.23;9.77;;;;;;;;;;21090604;28;20122;-69
2023/02/04 19:42:00;;;;;;;28.05;15.75;;;;;;;;;;21088414;28;20101;-69
2023/02/04 19:52:06;;;;;;;18.63;6.60;;;;;;;;;;21086832;28;20052;-68
2023/02/04 20:02:28;;;;;;;15.68;5.93;;;;;;;;;;21086400;28;20044;-68
2023/02/04 20:12:31;;;;;;;12.90;5.93;;;;;;;;;;21085498;28;20055;-67
2023/02/04 20:22:56;;;;;;;12.48;6.10;;;;;;;;;;21086531;28;20044;-68
2023/02/04 20:33:07;;;;;;;24.10;10.88;;;;;;;;;;20745774;28;20046;-70
2023/02/04 20:43:18;;;;;;;19.50;8.95;;;;;;;;;;20744277;28;20393;-68
2023/02/04 20:53:23;;;;;;;15.77;8.15;;;;;;;;;;20743295;28;20065;-69
2023/02/04 21:03:26;;;;;;;15.68;8.82;;;;;;;;;;20821945;28;20048;-68
2023/02/04 21:13:29;;;;;;;21.95;9.07;;;;;;;;;;21080434;28;20055;-68
2023/02/04 21:23:32;;;;;;;15.18;7.82;;;;;;;;;;21082291;28;20048;-68
2023/02/04 21:33:34;;;;;;;21.15;10.85;;;;;;;;;;21080277;28;20044;-68
2023/02/04 21:43:36;;;;;;;19.30;10.32;;;;;;;;;;21079330;28;20052;-68
2023/02/04 21:53:39;;;;;;;20.88;10.38;;;;;;;;;;21079014;28;20052;-68
2023/02/04 22:03:41;;;;;;;20.45;7.65;;;;;;;;;;21078648;28;20051;-69
2023/02/04 22:13:43;;;;;;;11.63;6.13;;;;;;;;;;21079708;28;20052;-69
2023/02/04 22:23:45;;;;;;;9.00;4.75;;;;;;;;;;21075716;28;20040;-70
2023/02/04 22:33:47;;;;;;;11.05;4.47;;;;;;;;;;21095671;28;20048;-68
2023/02/04 22:43:50;;;;;;;9.55;3.90;;;;;;;;;;21093986;28;20044;-68
2023/02/04 22:53:52;;;;;;;7.63;3.70;;;;;;;;;;21093887;28;20055;-67
2023/02/04 23:03:54;;;;;;;10.60;5.57;;;;;;;;;;21093643;28;20071;-68
2023/02/04 23:13:56;;;;;;;11.07;5.40;;;;;;;;;;21093778;28;20056;-68
2023/02/04 23:24:02;;;;;;;13.52;5.40;;;;;;;;;;21073679;28;20139;-69
2023/02/04 23:34:05;;;;;;;9.38;3.53;;;;;;;;;;21089440;28;20056;-67
2023/02/04 23:44:08;;;;;;;6.40;3.35;;;;;;;;;;21021525;28;20513;-68
2023/02/04 23:54:11;;;;;;;10.48;3.13;;;;;;;;;;21005832;28;20080;-68
